Time;durP1;ratioP1;P1;durP2;ratioP2;P2;SDS_P1;SDS_P2;PMS_P1;PMS_P2;Temp;Humidity;BMP_temperature;BMP_pressure;BME280_temperature;BME280_humidity;BME280_pressure;Samples;Min_cycle;Max_cycle;Signal;HPM_P1;HPM_P2
2022/01/28 00:02:46;;;;;;;11.65;7.70;;;;;;;-146.19;100.00;58918.88;4998136;28;20359;-48
2022/01/28 00:05:18;;;;;;;10.68;6.47;;;;;;;-146.19;100.00;58918.88;4993461;28;20088;-53
2022/01/28 00:07:47;;;;;;;9.57;7.38;;;;;;;-146.19;100.00;58918.88;5014728;28;20484;-48
2022/01/28 00:10:16;;;;;;;10.68;8.02;;;;;;;-146.19;100.00;58918.88;4998836;28;20073;-48
2022/01/28 00:15:42;;;;;;;9.30;7.90;;;;;;;-146.19;100.00;58918.88;4986282;28;20104;-47
2022/01/28 00:18:36;;;;;;;10.60;6.72;;;;;;;-146.19;100.00;58918.88;4996118;28;20062;-52
2022/01/28 00:40:34;;;;;;;9.98;6.57;;;;;;;-146.19;100.00;58918.88;4980567;28;20089;-51
2022/01/28 00:43:03;;;;;;;9.23;6.15;;;;;;;-146.19;100.00;58918.88;4998288;28;20157;-54
2022/01/28 00:45:31;;;;;;;9.00;7.32;;;;;;;-146.19;100.00;58918.88;4996124;28;20078;-53
2022/01/28 00:48:00;;;;;;;10.05;7.97;;;;;;;-146.19;100.00;58918.88;4990582;28;20061;-49
2022/01/28 00:50:30;;;;;;;8.77;7.03;;;;;;;-146.19;100.00;58918.88;5001167;28;20089;-49
2022/01/28 00:52:58;;;;;;;8.27;6.75;;;;;;;-146.19;100.00;58918.88;4993384;28;21639;-47
2022/01/28 00:55:27;;;;;;;8.85;6.63;;;;;;;-146.19;100.00;58918.88;4996813;28;20054;-47
2022/01/28 00:57:55;;;;;;;7.55;5.60;;;;;;;-146.19;100.00;58918.88;4999866;28;20074;-54
2022/01/28 01:00:24;;;;;;;10.15;8.10;;;;;;;-146.19;100.00;58918.88;4995836;28;20070;-53
2022/01/28 01:02:52;;;;;;;9.25;7.53;;;;;;;-146.19;100.00;58918.88;4994863;28;20073;-52
2022/01/28 01:05:22;;;;;;;10.05;8.05;;;;;;;-146.19;100.00;58918.88;5001541;28;20074;-55
2022/01/28 01:07:52;;;;;;;9.52;6.55;;;;;;;-146.19;100.00;58918.88;4993745;28;20539;-54
2022/01/28 01:10:20;;;;;;;9.38;7.13;;;;;;;-146.19;100.00;58918.88;4990348;28;20073;-51
2022/01/28 01:12:49;;;;;;;10.85;6.97;;;;;;;-146.19;100.00;58918.88;4990824;28;20080;-50
2022/01/28 01:15:21;;;;;;;8.82;6.40;;;;;;;-146.19;100.00;58918.88;4992631;28;20169;-52
2022/01/28 01:17:58;;;;;;;8.68;7.30;;;;;;;-146.19;100.00;58918.88;4998003;28;20072;-50
2022/01/28 01:20:58;;;;;;;15.43;8.60;;;;;;;-146.19;100.00;58918.88;4995251;28;20100;-52
2022/01/28 01:23:31;;;;;;;8.80;6.50;;;;;;;-146.19;100.00;58918.88;4996694;28;21517;-53
2022/01/28 01:26:07;;;;;;;11.32;7.78;;;;;;;-146.19;100.00;58918.88;4996614;28;21564;-45
2022/01/28 01:28:38;;;;;;;11.02;7.63;;;;;;;-146.19;100.00;58918.88;4997885;28;20466;-54
2022/01/28 01:31:11;;;;;;;5.55;5.05;;;;;;;-146.19;100.00;58918.88;4997533;28;20068;-49
2022/01/28 01:33:44;;;;;;;7.93;6.55;;;;;;;-146.19;100.00;58918.88;4988143;28;20674;-50
2022/01/28 01:36:13;;;;;;;8.70;7.28;;;;;;;-146.19;100.00;58918.88;5000234;28;20607;-50
2022/01/28 01:38:43;;;;;;;10.07;7.13;;;;;;;-146.19;100.00;58918.88;4993163;28;20093;-52
2022/01/28 01:41:16;;;;;;;8.52;6.88;;;;;;;-146.19;100.00;58918.88;4993408;28;20057;-49
2022/01/28 01:43:55;;;;;;;8.63;6.75;;;;;;;-146.19;100.00;58918.88;4990125;28;20108;-48
2022/01/28 01:46:34;;;;;;;6.40;5.47;;;;;;;-146.19;100.00;58918.88;4981873;28;20070;-51
2022/01/28 01:52:04;;;;;;;9.30;6.70;;;;;;;-146.19;100.00;58918.88;4938256;28;20063;-49
2022/01/28 01:54:38;;;;;;;7.88;6.05;;;;;;;-146.19;100.00;58918.88;4990004;28;20081;-50
2022/01/28 01:57:07;;;;;;;7.40;6.28;;;;;;;-146.19;100.00;58918.88;4993635;28;20065;-48
2022/01/28 01:59:37;;;;;;;9.15;6.78;;;;;;;-146.19;100.00;58918.88;4989998;28;20081;-50
2022/01/28 02:02:06;;;;;;;7.75;6.60;;;;;;;-146.19;100.00;58918.88;4997135;28;20078;-50
2022/01/28 02:04:35;;;;;;;11.43;6.53;;;;;;;-146.19;100.00;58918.88;4997273;28;20066;-51
2022/01/28 02:07:04;;;;;;;8.23;6.13;;;;;;;-146.19;100.00;58918.88;4993831;28;20446;-48
2022/01/28 02:09:32;;;;;;;7.32;6.22;;;;;;;-146.19;100.00;58918.88;4994828;28;20672;-47
2022/01/28 02:12:02;;;;;;;6.07;5.47;;;;;;;-146.19;100.00;58918.88;4994315;28;20065;-46
2022/01/28 02:14:31;;;;;;;8.18;5.72;;;;;;;-146.19;100.00;58918.88;4992815;28;20524;-45
2022/01/28 02:17:00;;;;;;;9.35;6.82;;;;;;;-146.19;100.00;58918.88;4992997;28;20555;-48
2022/01/28 02:19:29;;;;;;;7.85;6.63;;;;;;;-146.19;100.00;58918.88;4972632;28;20094;-51
2022/01/28 02:21:59;;;;;;;6.65;5.88;;;;;;;-146.19;100.00;58918.88;4982695;28;20066;-49
2022/01/28 02:24:32;;;;;;;6.13;5.18;;;;;;;-146.19;100.00;58918.88;4983485;28;20081;-51
2022/01/28 02:27:01;;;;;;;7.22;6.00;;;;;;;-146.19;100.00;58918.88;4972706;28;20082;-55
2022/01/28 02:29:31;;;;;;;6.93;5.38;;;;;;;-146.19;100.00;58918.88;4980439;28;20074;-49
2022/01/28 02:32:01;;;;;;;7.43;5.90;;;;;;;-146.19;100.00;58918.88;5003128;28;20339;-48
2022/01/28 02:34:30;;;;;;;7.95;7.13;;;;;;;-146.19;100.00;58918.88;4998209;28;20093;-50
2022/01/28 02:37:00;;;;;;;6.28;5.65;;;;;;;-146.19;100.00;58918.88;4996042;28;20058;-48
2022/01/28 02:39:29;;;;;;;6.95;6.25;;;;;;;-146.19;100.00;58918.88;4992941;28;20073;-53
2022/01/28 02:42:04;;;;;;;7.55;6.75;;;;;;;-146.19;100.00;58918.88;4996078;28;20520;-54
2022/01/28 02:44:44;;;;;;;7.72;6.90;;;;;;;-146.19;100.00;58918.88;4997722;28;20077;-55
2022/01/28 02:47:16;;;;;;;9.13;6.18;;;;;;;-146.19;100.00;58918.88;5000086;28;21516;-54
2022/01/28 02:49:45;;;;;;;8.98;7.60;;;;;;;-146.19;100.00;58918.88;5001684;28;20531;-49
2022/01/28 02:52:24;;;;;;;6.30;5.40;;;;;;;-146.19;100.00;58918.88;4999293;28;20065;-56
2022/01/28 02:54:52;;;;;;;9.30;6.70;;;;;;;-146.19;100.00;58918.88;4999787;28;20042;-52
2022/01/28 02:57:25;;;;;;;8.55;6.57;;;;;;;-146.19;100.00;58918.88;5010466;28;20536;-52
2022/01/28 02:59:54;;;;;;;10.45;6.90;;;;;;;-146.19;100.00;58918.88;5008456;28;20077;-52
2022/01/28 03:02:22;;;;;;;12.82;7.22;;;;;;;-146.19;100.00;58918.88;5000565;28;20092;-52
2022/01/28 03:05:28;;;;;;;10.52;7.28;;;;;;;-146.19;100.00;58918.88;5004320;28;20184;-49
2022/01/28 03:08:00;;;;;;;9.25;6.97;;;;;;;-146.19;100.00;58918.88;4995229;28;20065;-52
2022/01/28 03:10:39;;;;;;;9.70;6.47;;;;;;;-146.19;100.00;58918.88;5002095;28;20555;-50
2022/01/28 03:13:30;;;;;;;9.40;6.55;;;;;;;-146.19;100.00;58918.88;5001288;28;20065;-51
2022/01/28 03:16:08;;;;;;;;;;;;;;;-146.19;100.00;58918.88;4999158;28;20078;-53
2022/01/28 03:18:52;;;;;;;9.68;6.20;;;;;;;-146.19;100.00;58918.88;5010710;28;20371;-56
2022/01/28 03:21:41;;;;;;;8.20;5.93;;;;;;;-146.19;100.00;58918.88;4994280;28;20470;-50
2022/01/28 03:24:12;;;;;;;8.70;6.32;;;;;;;-146.19;100.00;58918.88;5001725;28;20099;-52
2022/01/28 03:26:41;;;;;;;7.25;6.55;;;;;;;-146.19;100.00;58918.88;5002023;28;20081;-49
2022/01/28 03:29:09;;;;;;;8.05;5.80;;;;;;;-146.19;100.00;58918.88;5010234;28;20086;-55
2022/01/28 03:31:38;;;;;;;8.45;7.07;;;;;;;-146.19;100.00;58918.88;5006396;28;20084;-50
2022/01/28 03:34:07;;;;;;;9.38;6.32;;;;;;;-146.19;100.00;58918.88;5003214;28;20065;-50
2022/01/28 03:36:36;;;;;;;7.13;6.40;;;;;;;-146.19;100.00;58918.88;5005560;28;20061;-51
2022/01/28 03:39:07;;;;;;;8.52;6.43;;;;;;;-146.19;100.00;58918.88;4998180;28;20073;-57
2022/01/28 03:41:37;;;;;;;8.50;6.70;;;;;;;-146.19;100.00;58918.88;4991861;28;20105;-53
2022/01/28 03:44:06;;;;;;;10.57;6.57;;;;;;;-146.19;100.00;58918.88;4998427;28;20102;-49
2022/01/28 03:46:35;;;;;;;7.57;6.45;;;;;;;-146.19;100.00;58918.88;4979054;28;20070;-56
2022/01/28 03:49:05;;;;;;;8.13;6.30;;;;;;;-146.19;100.00;58918.88;4978164;28;20078;-46
2022/01/28 03:51:33;;;;;;;13.00;7.68;;;;;;;-146.19;100.00;58918.88;4977317;28;20133;-49
2022/01/28 03:54:02;;;;;;;10.13;7.43;;;;;;;-146.19;100.00;58918.88;4975617;28;20178;-48
2022/01/28 03:56:30;;;;;;;8.60;6.72;;;;;;;-146.19;100.00;58918.88;4974852;28;20082;-47
2022/01/28 03:59:00;;;;;;;10.27;7.22;;;;;;;-146.19;100.00;58918.88;4974045;28;20430;-50
2022/01/28 04:01:34;;;;;;;14.30;8.23;;;;;;;-146.19;100.00;58918.88;4977353;28;20105;-49
2022/01/28 04:12:22;;;;;;;10.02;6.95;;;;;;;-146.19;100.00;58918.88;4986764;28;20074;-53
2022/01/28 04:15:06;;;;;;;11.38;8.68;;;;;;;-146.19;100.00;58918.88;4975174;28;20143;-50
2022/01/28 04:17:35;;;;;;;9.02;6.28;;;;;;;-146.19;100.00;58918.88;4974468;28;20086;-52
2022/01/28 04:20:04;;;;;;;8.43;6.55;;;;;;;-146.19;100.00;58918.88;5001757;28;20089;-47
2022/01/28 04:22:32;;;;;;;9.27;6.85;;;;;;;-146.19;100.00;58918.88;4995162;28;20070;-48
2022/01/28 04:25:01;;;;;;;7.78;6.35;;;;;;;-146.19;100.00;58918.88;4996745;28;20513;-54
2022/01/28 04:27:29;;;;;;;6.78;6.03;;;;;;;-146.19;100.00;58918.88;4996999;28;20817;-51
2022/01/28 04:29:59;;;;;;;10.45;7.53;;;;;;;-146.19;100.00;58918.88;4998786;28;20070;-50
2022/01/28 04:32:29;;;;;;;7.13;6.40;;;;;;;-146.19;100.00;58918.88;4995477;28;20111;-51
2022/01/28 04:34:58;;;;;;;7.60;6.50;;;;;;;-146.19;100.00;58918.88;4994796;28;21996;-55
2022/01/28 04:37:32;;;;;;;8.27;6.20;;;;;;;-146.19;100.00;58918.88;4994640;28;20074;-47
2022/01/28 04:40:09;;;;;;;8.70;6.63;;;;;;;-146.19;100.00;58918.88;4997337;28;20065;-48
2022/01/28 04:45:31;;;;;;;7.82;6.53;;;;;;;-146.19;100.00;58918.88;4993691;28;20073;-49
2022/01/28 04:48:10;;;;;;;7.15;6.22;;;;;;;-146.19;100.00;58918.88;4995677;28;20077;-49
2022/01/28 04:50:48;;;;;;;9.48;7.35;;;;;;;-146.19;100.00;58918.88;4994726;28;20085;-49
2022/01/28 04:56:23;;;;;;;10.77;8.02;;;;;;;-146.19;100.00;58918.88;4985369;28;20369;-50
2022/01/28 04:59:19;;;;;;;9.73;7.50;;;;;;;-146.19;100.00;58918.88;4997560;28;20442;-52
2022/01/28 05:02:09;;;;;;;8.60;7.18;;;;;;;-146.19;100.00;58918.88;5004483;28;20057;-53
2022/01/28 05:04:54;;;;;;;9.57;7.13;;;;;;;-146.19;100.00;58918.88;4995719;28;20070;-55
2022/01/28 05:07:38;;;;;;;7.45;5.68;;;;;;;-146.19;100.00;58918.88;4995525;28;20066;-51
2022/01/28 05:24:45;;;;;;;7.57;5.57;;;;;;;-146.19;100.00;58918.88;5000757;28;20062;-55
2022/01/28 05:27:15;;;;;;;6.95;5.78;;;;;;;-146.19;100.00;58918.88;5001721;28;20096;-49
2022/01/28 05:29:43;;;;;;;6.80;5.65;;;;;;;-146.19;100.00;58918.88;4998035;28;20096;-50
2022/01/28 05:32:12;;;;;;;7.35;6.32;;;;;;;-146.19;100.00;58918.88;5000369;28;20084;-53
2022/01/28 05:34:42;;;;;;;7.38;5.95;;;;;;;-146.19;100.00;58918.88;4995713;28;20457;-52
2022/01/28 05:37:11;;;;;;;8.68;5.95;;;;;;;-146.19;100.00;58918.88;4980210;28;20058;-57
2022/01/28 05:39:39;;;;;;;7.88;5.28;;;;;;;-146.19;100.00;58918.88;4987513;28;20113;-53
2022/01/28 05:42:08;;;;;;;6.90;5.60;;;;;;;-146.19;100.00;58918.88;4993308;28;20070;-53
2022/01/28 05:44:37;;;;;;;10.32;6.60;;;;;;;-146.19;100.00;58918.88;4970261;28;20078;-51
2022/01/28 05:47:06;;;;;;;6.53;5.28;;;;;;;-146.19;100.00;58918.88;5002181;28;20096;-51
2022/01/28 05:49:35;;;;;;;6.43;4.80;;;;;;;-146.19;100.00;58918.88;4994973;28;20126;-52
2022/01/28 05:52:06;;;;;;;9.45;6.75;;;;;;;-146.19;100.00;58918.88;4997621;28;20065;-53
2022/01/28 05:54:34;;;;;;;6.30;5.25;;;;;;;-146.19;100.00;58918.88;4997274;28;20069;-51
2022/01/28 05:57:03;;;;;;;7.50;5.93;;;;;;;-146.19;100.00;58918.88;4992788;28;20062;-50
2022/01/28 05:59:31;;;;;;;9.75;6.90;;;;;;;-146.19;100.00;58918.88;5003189;28;20077;-48
2022/01/28 06:02:00;;;;;;;9.25;6.78;;;;;;;-146.19;100.00;58918.88;4997849;28;20468;-50
2022/01/28 06:04:29;;;;;;;13.10;7.38;;;;;;;-146.19;100.00;58918.88;4996661;28;20077;-54
2022/01/28 06:06:57;;;;;;;7.85;6.22;;;;;;;-146.19;100.00;58918.88;4993971;28;20070;-53
2022/01/28 06:09:27;;;;;;;8.32;6.07;;;;;;;-146.19;100.00;58918.88;4986807;28;20035;-53
2022/01/28 06:11:55;;;;;;;6.82;5.18;;;;;;;-146.19;100.00;58918.88;4971583;28;20477;-52
2022/01/28 06:14:24;;;;;;;11.65;6.82;;;;;;;-146.19;100.00;58918.88;4976155;28;20082;-50
2022/01/28 06:16:52;;;;;;;7.35;6.13;;;;;;;-146.19;100.00;58918.88;4973356;28;20070;-49
2022/01/28 06:19:21;;;;;;;9.52;6.35;;;;;;;-146.19;100.00;58918.88;4998072;28;20521;-51
2022/01/28 06:21:49;;;;;;;7.45;6.20;;;;;;;-146.19;100.00;58918.88;4995356;28;20077;-49
2022/01/28 06:24:18;;;;;;;11.25;7.20;;;;;;;-146.19;100.00;58918.88;4997861;28;20058;-53
2022/01/28 06:26:48;;;;;;;9.48;6.43;;;;;;;-146.19;100.00;58918.88;5002709;28;20089;-50
2022/01/28 06:29:16;;;;;;;11.00;7.47;;;;;;;-146.19;100.00;58918.88;4997048;28;20088;-53
2022/01/28 06:31:45;;;;;;;8.73;6.60;;;;;;;-146.19;100.00;58918.88;5004221;28;20454;-54
2022/01/28 06:34:13;;;;;;;8.45;6.45;;;;;;;-146.19;100.00;58918.88;4993477;28;20092;-49
2022/01/28 06:36:42;;;;;;;6.15;5.55;;;;;;;-146.19;100.00;58918.88;4993155;28;20073;-46
2022/01/28 06:39:10;;;;;;;7.55;6.00;;;;;;;-146.19;100.00;58918.88;4996504;28;20089;-53
2022/01/28 06:41:38;;;;;;;9.10;6.20;;;;;;;-146.19;100.00;58918.88;5003059;28;20120;-46
2022/01/28 06:44:10;;;;;;;7.15;5.53;;;;;;;-146.19;100.00;58918.88;4996920;28;20089;-54
2022/01/28 06:46:39;;;;;;;9.48;6.78;;;;;;;-146.19;100.00;58918.88;4993053;28;20062;-52
2022/01/28 06:49:07;;;;;;;9.68;6.13;;;;;;;-146.19;100.00;58918.88;4990929;28;20066;-50
2022/01/28 06:51:37;;;;;;;7.80;6.32;;;;;;;-146.19;100.00;58918.88;4997202;28;20543;-50
2022/01/28 06:54:06;;;;;;;9.02;6.80;;;;;;;-146.19;100.00;58918.88;4998064;28;20080;-49
2022/01/28 06:56:34;;;;;;;7.80;6.03;;;;;;;-146.19;100.00;58918.88;4999316;28;20086;-53
2022/01/28 06:59:03;;;;;;;6.80;5.82;;;;;;;-146.19;100.00;58918.88;4999474;28;20085;-52
2022/01/28 07:01:32;;;;;;;10.10;6.00;;;;;;;-146.19;100.00;58918.88;4996874;28;20070;-48
2022/01/28 07:04:01;;;;;;;5.85;5.35;;;;;;;-146.19;100.00;58918.88;4999117;28;20524;-53
2022/01/28 07:06:29;;;;;;;9.93;7.28;;;;;;;-146.19;100.00;58918.88;4989926;28;20571;-50
2022/01/28 07:08:58;;;;;;;9.98;7.13;;;;;;;-146.19;100.00;58918.88;5003188;28;20517;-54
2022/01/28 07:11:26;;;;;;;8.38;6.95;;;;;;;-146.19;100.00;58918.88;4993144;28;20085;-56
2022/01/28 07:13:55;;;;;;;9.13;5.70;;;;;;;-146.19;100.00;58918.88;4998419;28;20077;-50
2022/01/28 07:16:23;;;;;;;5.82;5.15;;;;;;;-146.19;100.00;58918.88;4996924;28;20062;-46
2022/01/28 07:18:53;;;;;;;8.40;6.78;;;;;;;-146.19;100.00;58918.88;5001223;28;20073;-56
2022/01/28 07:21:22;;;;;;;7.20;5.68;;;;;;;-146.19;100.00;58918.88;4998011;28;20061;-51
2022/01/28 07:23:50;;;;;;;9.00;6.78;;;;;;;-146.19;100.00;58918.88;5004470;28;20090;-49
2022/01/28 07:26:18;;;;;;;6.70;6.00;;;;;;;-146.19;100.00;58918.88;5005643;28;20092;-50
2022/01/28 07:28:48;;;;;;;8.20;5.75;;;;;;;-146.19;100.00;58918.88;5002131;28;20593;-48
2022/01/28 07:31:18;;;;;;;8.13;6.00;;;;;;;-146.19;100.00;58918.88;4999337;28;20061;-54
2022/01/28 07:33:47;;;;;;;10.82;7.47;;;;;;;-146.19;100.00;58918.88;4994100;28;20636;-49
2022/01/28 07:36:17;;;;;;;7.35;6.40;;;;;;;-146.19;100.00;58918.88;5001432;28;20073;-54
2022/01/28 07:38:45;;;;;;;6.93;5.35;;;;;;;-146.19;100.00;58918.88;4998834;28;20082;-51
2022/01/28 07:41:13;;;;;;;6.43;5.80;;;;;;;-146.19;100.00;58918.88;5004973;28;20085;-50
2022/01/28 07:43:42;;;;;;;8.45;5.50;;;;;;;-146.19;100.00;58918.88;4992953;28;20441;-51
2022/01/28 07:46:10;;;;;;;6.45;5.32;;;;;;;-146.19;100.00;58918.88;4993576;28;20074;-49
2022/01/28 07:48:39;;;;;;;6.68;5.40;;;;;;;-146.19;100.00;58918.88;4995897;28;20754;-48
2022/01/28 07:51:07;;;;;;;6.85;6.13;;;;;;;-146.19;100.00;58918.88;4994194;28;20074;-48
2022/01/28 07:53:37;;;;;;;7.03;6.30;;;;;;;-146.19;100.00;58918.88;4995643;28;20092;-47
2022/01/28 07:56:06;;;;;;;5.38;4.78;;;;;;;-146.19;100.00;58918.88;4995914;28;20456;-56
2022/01/28 07:58:35;;;;;;;7.82;6.13;;;;;;;-146.19;100.00;58918.88;4989935;28;20081;-48
2022/01/28 08:01:03;;;;;;;6.60;5.15;;;;;;;-146.19;100.00;58918.88;4992487;28;20081;-53
2022/01/28 08:03:32;;;;;;;7.55;5.72;;;;;;;-146.19;100.00;58918.88;4992834;28;20085;-53
2022/01/28 08:06:01;;;;;;;8.02;5.18;;;;;;;-146.19;100.00;58918.88;5000079;28;20057;-48
2022/01/28 08:08:30;;;;;;;7.53;5.40;;;;;;;-146.19;100.00;58918.88;4995254;28;20066;-53
2022/01/28 08:11:00;;;;;;;6.75;5.20;;;;;;;-146.19;100.00;58918.88;4991347;28;20368;-46
2022/01/28 08:13:29;;;;;;;9.57;5.82;;;;;;;-146.19;100.00;58918.88;4995118;28;20089;-48
2022/01/28 08:15:57;;;;;;;5.18;4.68;;;;;;;-146.19;100.00;58918.88;4997634;28;20068;-52
2022/01/28 08:18:25;;;;;;;6.18;5.53;;;;;;;-146.19;100.00;58918.88;4996667;28;20069;-53
2022/01/28 08:20:54;;;;;;;7.07;6.30;;;;;;;-146.19;100.00;58918.88;4996153;28;21279;-51
2022/01/28 08:23:22;;;;;;;10.38;7.07;;;;;;;-146.19;100.00;58918.88;5006157;28;20508;-54
2022/01/28 08:25:54;;;;;;;6.70;5.63;;;;;;;-146.19;100.00;58918.88;5002203;28;20073;-53
2022/01/28 08:28:24;;;;;;;8.15;6.28;;;;;;;-146.19;100.00;58918.88;5000879;28;20073;-54
2022/01/28 08:30:53;;;;;;;8.98;6.53;;;;;;;-146.19;100.00;58918.88;5006037;28;20077;-47
2022/01/28 08:33:21;;;;;;;8.73;6.75;;;;;;;-146.19;100.00;58918.88;4998328;28;20505;-50
2022/01/28 08:35:53;;;;;;;7.82;6.18;;;;;;;-146.19;100.00;58918.88;4991964;28;20456;-50
2022/01/28 08:38:27;;;;;;;7.60;5.50;;;;;;;-146.19;100.00;58918.88;4993303;28;20069;-56
2022/01/28 08:40:58;;;;;;;6.43;4.97;;;;;;;-146.19;100.00;58918.88;4999713;28;20466;-51
2022/01/28 08:43:28;;;;;;;7.38;5.45;;;;;;;-146.19;100.00;58918.88;4982142;28;20072;-52
2022/01/28 08:45:57;;;;;;;6.07;5.00;;;;;;;-146.19;100.00;58918.88;4974242;28;20147;-52
2022/01/28 08:48:26;;;;;;;10.32;5.20;;;;;;;-146.19;100.00;58918.88;4988742;28;20578;-49
2022/01/28 08:50:54;;;;;;;6.82;4.68;;;;;;;-146.19;100.00;58918.88;4997027;28;20058;-49
2022/01/28 08:53:23;;;;;;;7.55;5.38;;;;;;;-146.19;100.00;58918.88;4998588;28;20084;-53
2022/01/28 08:55:51;;;;;;;7.40;4.88;;;;;;;-146.19;100.00;58918.88;4996254;28;20085;-48
2022/01/28 08:58:23;;;;;;;9.23;5.45;;;;;;;-146.19;100.00;58918.88;4992955;28;20073;-53
2022/01/28 09:00:53;;;;;;;8.25;5.22;;;;;;;-146.19;100.00;58918.88;4998091;28;20760;-53
2022/01/28 09:03:22;;;;;;;7.22;4.72;;;;;;;-146.19;100.00;58918.88;4998287;28;20087;-49
2022/01/28 09:05:51;;;;;;;11.57;5.35;;;;;;;-146.19;100.00;58918.88;4993185;28;20084;-53
2022/01/28 09:08:19;;;;;;;5.22;4.45;;;;;;;-146.19;100.00;58918.88;4992601;28;20097;-52
2022/01/28 09:10:57;;;;;;;4.82;4.38;;;;;;;-146.19;100.00;58918.88;4993186;28;20472;-49
2022/01/28 09:13:28;;;;;;;6.22;4.97;;;;;;;-146.19;100.00;58918.88;4996987;28;20069;-53
2022/01/28 09:15:58;;;;;;;8.15;5.55;;;;;;;-146.19;100.00;58918.88;4998930;28;20054;-49
2022/01/28 09:18:27;;;;;;;5.07;4.35;;;;;;;-146.19;100.00;58918.88;4995366;28;20323;-50
2022/01/28 09:20:55;;;;;;;6.80;5.20;;;;;;;-146.19;100.00;58918.88;4995609;28;20556;-51
2022/01/28 09:23:24;;;;;;;4.88;4.43;;;;;;;-146.19;100.00;58918.88;4998979;28;20464;-58
2022/01/28 09:25:52;;;;;;;8.43;5.55;;;;;;;-146.19;100.00;58918.88;5003585;28;20072;-48
2022/01/28 09:28:21;;;;;;;7.60;4.82;;;;;;;-146.19;100.00;58918.88;4993588;28;20066;-51
2022/01/28 09:30:49;;;;;;;5.78;5.07;;;;;;;-146.19;100.00;58918.88;4996694;28;20070;-52
2022/01/28 09:33:19;;;;;;;6.22;4.78;;;;;;;-146.19;100.00;58918.88;4999004;28;20066;-54
2022/01/28 09:35:48;;;;;;;8.55;5.63;;;;;;;-146.19;100.00;58918.88;4993994;28;20093;-53
2022/01/28 09:38:17;;;;;;;4.57;4.18;;;;;;;-146.19;100.00;58918.88;4994967;28;20080;-52
2022/01/28 09:40:46;;;;;;;4.80;4.40;;;;;;;-146.19;100.00;58918.88;5005969;28;20061;-48
2022/01/28 09:43:15;;;;;;;5.72;4.05;;;;;;;-146.19;100.00;58918.88;4989664;28;20062;-53
2022/01/28 09:45:47;;;;;;;6.20;4.68;;;;;;;-146.19;100.00;58918.88;4992399;28;20081;-54
2022/01/28 09:48:20;;;;;;;4.75;3.92;;;;;;;-146.19;100.00;58918.88;4996143;28;20512;-50
2022/01/28 09:50:48;;;;;;;4.85;4.35;;;;;;;-146.19;100.00;58918.88;5006356;28;20084;-52
2022/01/28 09:53:17;;;;;;;4.88;4.20;;;;;;;-146.19;100.00;58918.88;5001221;28;20096;-56
2022/01/28 09:55:47;;;;;;;5.97;5.20;;;;;;;-146.19;100.00;58918.88;4998443;28;20080;-52
2022/01/28 09:58:16;;;;;;;8.60;5.40;;;;;;;-146.19;100.00;58918.88;5009825;28;20064;-54
2022/01/28 10:00:45;;;;;;;4.40;4.00;;;;;;;-146.19;100.00;58918.88;4988552;28;20069;-52
2022/01/28 10:03:14;;;;;;;4.72;4.22;;;;;;;-146.19;100.00;58918.88;5001202;28;20072;-53
2022/01/28 10:05:46;;;;;;;6.57;5.00;;;;;;;-146.19;100.00;58918.88;4996719;28;20085;-50
2022/01/28 10:08:16;;;;;;;8.23;4.55;;;;;;;-146.19;100.00;58918.88;5006350;28;20081;-47
2022/01/28 10:10:49;;;;;;;4.60;3.75;;;;;;;-146.19;100.00;58918.88;4990687;28;20070;-52
2022/01/28 10:13:23;;;;;;;4.90;4.40;;;;;;;-146.19;100.00;58918.88;4999386;28;20545;-55
2022/01/28 10:15:57;;;;;;;6.95;4.18;;;;;;;-146.19;100.00;58918.88;4989338;28;20065;-47
2022/01/28 10:18:51;;;;;;;6.35;4.03;;;;;;;-146.19;100.00;58918.88;4998022;28;20069;-53
2022/01/28 10:21:30;;;;;;;4.97;3.92;;;;;;;-146.19;100.00;58918.88;4993906;28;20068;-48
2022/01/28 10:24:04;;;;;;;6.63;4.65;;;;;;;-146.19;100.00;58918.88;4994075;28;20477;-52
2022/01/28 10:26:35;;;;;;;5.05;4.53;;;;;;;-146.19;100.00;58918.88;5000720;28;20108;-52
2022/01/28 10:29:06;;;;;;;5.40;4.30;;;;;;;-146.19;100.00;58918.88;5005261;28;20089;-57
2022/01/28 10:31:40;;;;;;;6.13;4.25;;;;;;;-146.19;100.00;58918.88;4997241;28;20561;-53
2022/01/28 10:34:17;;;;;;;7.32;4.68;;;;;;;-146.19;100.00;58918.88;4980403;28;20066;-50
2022/01/28 10:36:48;;;;;;;6.05;4.25;;;;;;;-146.19;100.00;58918.88;4973734;28;20066;-54
2022/01/28 10:39:20;;;;;;;5.85;4.07;;;;;;;-146.19;100.00;58918.88;4975074;28;20062;-49
2022/01/28 10:41:52;;;;;;;8.30;4.80;;;;;;;-146.19;100.00;58918.88;4975547;28;20078;-54
2022/01/28 10:44:21;;;;;;;4.45;3.92;;;;;;;-146.19;100.00;58918.88;4972811;28;20093;-50
2022/01/28 10:46:58;;;;;;;7.70;4.00;;;;;;;-146.19;100.00;58918.88;4967978;28;20062;-51
2022/01/28 10:49:31;;;;;;;5.13;3.60;;;;;;;-146.19;100.00;58918.88;4976848;28;20068;-53
2022/01/28 10:52:07;;;;;;;4.30;3.90;;;;;;;-146.19;100.00;58918.88;4978323;28;20815;-49
2022/01/28 10:54:36;;;;;;;7.53;4.05;;;;;;;-146.19;100.00;58918.88;4980402;28;20079;-55
2022/01/28 10:57:06;;;;;;;5.32;4.80;;;;;;;-146.19;100.00;58918.88;4989095;28;20065;-52
2022/01/28 10:59:36;;;;;;;5.00;4.13;;;;;;;-146.19;100.00;58918.88;5000716;28;20496;-54
2022/01/28 11:02:06;;;;;;;6.22;4.85;;;;;;;-146.19;100.00;58918.88;4980461;28;20801;-54
2022/01/28 11:04:36;;;;;;;8.05;4.43;;;;;;;-146.19;100.00;58918.88;4996695;28;20070;-56
2022/01/28 11:07:06;;;;;;;4.93;3.90;;;;;;;-146.19;100.00;58918.88;5006099;28;20073;-50
2022/01/28 11:09:34;;;;;;;8.00;4.68;;;;;;;-146.19;100.00;58918.88;5002605;28;20080;-51
2022/01/28 11:12:03;;;;;;;7.45;4.72;;;;;;;-146.19;100.00;58918.88;5001385;28;20070;-51
2022/01/28 11:14:32;;;;;;;7.60;4.60;;;;;;;-146.19;100.00;58918.88;5000750;28;20086;-52
2022/01/28 11:17:00;;;;;;;6.47;4.03;;;;;;;-146.19;100.00;58918.88;5012690;28;20627;-53
2022/01/28 11:19:33;;;;;;;7.13;3.85;;;;;;;-146.19;100.00;58918.88;4997843;28;20060;-55
2022/01/28 11:22:17;;;;;;;4.72;3.40;;;;;;;-146.19;100.00;58918.88;5012212;28;20069;-47
2022/01/28 11:25:01;;;;;;;4.57;3.50;;;;;;;-146.19;100.00;58918.88;4999218;28;20058;-52
2022/01/28 11:27:31;;;;;;;6.75;3.80;;;;;;;-146.19;100.00;58918.88;4997692;28;20473;-52
2022/01/28 11:30:17;;;;;;;4.20;3.72;;;;;;;-146.19;100.00;58918.88;4998465;28;20069;-54
2022/01/28 11:33:03;;;;;;;4.07;3.20;;;;;;;-146.19;100.00;58918.88;4999204;28;20649;-48
2022/01/28 11:35:37;;;;;;;5.90;3.60;;;;;;;-146.19;100.00;58918.88;5004677;28;20104;-53
2022/01/28 11:38:40;;;;;;;4.65;3.47;;;;;;;-146.19;100.00;58918.88;4998008;28;21518;-52
2022/01/28 11:41:11;;;;;;;5.93;3.53;;;;;;;-146.19;100.00;58918.88;4994618;28;21498;-52
2022/01/28 11:43:51;;;;;;;5.82;3.67;;;;;;;-146.19;100.00;58918.88;4974461;28;20063;-52
2022/01/28 11:46:30;;;;;;;4.65;3.38;;;;;;;-146.19;100.00;58918.88;4977382;28;20074;-50
2022/01/28 11:49:20;;;;;;;3.70;3.30;;;;;;;-146.19;100.00;58918.88;4984481;28;20533;-51
2022/01/28 11:51:49;;;;;;;3.42;3.13;;;;;;;-146.19;100.00;58918.88;4970474;28;20537;-53
2022/01/28 11:54:21;;;;;;;4.32;3.00;;;;;;;-146.19;100.00;58918.88;4975262;28;20437;-55
2022/01/28 11:57:16;;;;;;;4.97;3.42;;;;;;;-146.19;100.00;58918.88;4978945;28;20082;-53
2022/01/28 11:59:46;;;;;;;3.30;3.00;;;;;;;-146.19;100.00;58918.88;4978803;28;20073;-56
2022/01/28 12:02:17;;;;;;;3.75;3.25;;;;;;;-146.19;100.00;58918.88;4978868;28;20082;-52
2022/01/28 12:04:46;;;;;;;6.60;3.20;;;;;;;-146.19;100.00;58918.88;4993836;28;20081;-57
2022/01/28 12:07:18;;;;;;;4.05;3.22;;;;;;;-146.19;100.00;58918.88;4997261;28;20073;-52
2022/01/28 12:09:50;;;;;;;5.10;3.33;;;;;;;-146.19;100.00;58918.88;5001204;28;20077;-46
2022/01/28 12:12:47;;;;;;;4.03;3.13;;;;;;;-146.19;100.00;58918.88;4994357;28;20074;-52
2022/01/28 12:15:18;;;;;;;6.97;3.55;;;;;;;-146.19;100.00;58918.88;5000153;28;20077;-54
2022/01/28 12:17:49;;;;;;;3.92;3.35;;;;;;;-146.19;100.00;58918.88;5000643;28;20078;-46
2022/01/28 12:20:38;;;;;;;;;;;;;;;-146.19;100.00;58918.88;5005924;28;20077;-50
2022/01/28 12:23:36;;;;;;;5.63;3.30;;;;;;;-146.19;100.00;58918.88;5000830;28;19964;-55
2022/01/28 12:26:07;;;;;;;2.90;2.70;;;;;;;-146.19;100.00;58918.88;4998732;28;21487;-47